KSPI

Abraham Lincoln Capital Airport

Springfield, Illinois, USA
METAR KSPI 200052Z 18017KT 10SM CLR 06/M02 A2988 RMK AO2 SLP122 T00561022
Observed Flight Rules
Jan-20 @ 00:52 UTC (25 minutes ago) Visual Flight Rules
Wind Visibility Clouds
180° at 17 knots 10 miles
  • Clear skies
Temperatures Readings
Current 6°C / 43°F
Dewpoint -2°C / 28°F
Humidity 57%
Altimeter 29.88" Hg
Pressure 1012.2 hPa
Elevation 181
METAR KSPI 200052Z 18017KT 10SM CLR 06/M02 A2988 RMK AO2 SLP122 T00561022
Observed Flight Rules
Jan-20 @ 00:52 UTC
(25 minutes ago)
VFR
Wind Visibility
180° at 17 knots 10 miles
Clouds
  • Clear skies
Temperature Dewpoint
6°C / 43°F -2°C / 28°F
Humidity Altimeter Pressure
57% 29.88" Hg 1012.2 hPa